sensor_id;sensor_type;location;lat;lon;timestamp;pressure;altitude;pressure_sealevel;temperature;humidity
28167;BME280;15455;53.376;-6.262;2022-08-21T00:01:45;101043.03;;;11.59;100.00
28167;BME280;15455;53.376;-6.262;2022-08-21T00:04:31;101039.50;;;11.72;100.00
28167;BME280;15455;53.376;-6.262;2022-08-21T00:07:18;101041.22;;;11.81;100.00
28167;BME280;15455;53.376;-6.262;2022-08-21T00:10:04;101049.06;;;11.86;100.00
28167;BME280;15455;53.376;-6.262;2022-08-21T00:12:50;101052.56;;;11.88;100.00
28167;BME280;15455;53.376;-6.262;2022-08-21T00:15:38;101043.81;;;11.92;100.00
28167;BME280;15455;53.376;-6.262;2022-08-21T00:18:25;101056.06;;;11.96;100.00
28167;BME280;15455;53.376;-6.262;2022-08-21T00:21:12;101048.16;;;12.05;100.00
28167;BME280;15455;53.376;-6.262;2022-08-21T00:23:58;101052.50;;;12.09;100.00
28167;BME280;15455;53.376;-6.262;2022-08-21T00:26:44;101055.09;;;12.15;100.00
28167;BME280;15455;53.376;-6.262;2022-08-21T00:29:30;101045.47;;;12.18;100.00
28167;BME280;15455;53.376;-6.262;2022-08-21T00:32:24;101050.72;;;12.18;100.00
28167;BME280;15455;53.376;-6.262;2022-08-21T00:35:16;101051.63;;;12.16;100.00
28167;BME280;15455;53.376;-6.262;2022-08-21T00:38:05;101042.91;;;12.08;100.00
28167;BME280;15455;53.376;-6.262;2022-08-21T00:40:55;101043.78;;;12.07;100.00
28167;BME280;15455;53.376;-6.262;2022-08-21T00:43:44;101047.28;;;12.08;100.00
28167;BME280;15455;53.376;-6.262;2022-08-21T00:46:30;101041.16;;;12.12;100.00
28167;BME280;15455;53.376;-6.262;2022-08-21T00:49:15;101050.75;;;12.19;100.00
28167;BME280;15455;53.376;-6.262;2022-08-21T00:52:01;101048.09;;;12.21;100.00
28167;BME280;15455;53.376;-6.262;2022-08-21T00:54:48;101040.25;;;12.21;100.00
28167;BME280;15455;53.376;-6.262;2022-08-21T00:57:42;101044.63;;;12.15;100.00
28167;BME280;15455;53.376;-6.262;2022-08-21T01:00:34;101046.41;;;12.07;100.00
28167;BME280;15455;53.376;-6.262;2022-08-21T01:03:23;101044.69;;;11.98;100.00
28167;BME280;15455;53.376;-6.262;2022-08-21T01:06:10;101042.97;;;11.85;100.00
28167;BME280;15455;53.376;-6.262;2022-08-21T01:08:56;101042.13;;;11.72;100.00
28167;BME280;15455;53.376;-6.262;2022-08-21T01:11:42;101049.09;;;11.62;100.00
28167;BME280;15455;53.376;-6.262;2022-08-21T01:14:31;101046.53;;;11.55;100.00
28167;BME280;15455;53.376;-6.262;2022-08-21T01:17:19;101054.38;;;11.47;100.00
28167;BME280;15455;53.376;-6.262;2022-08-21T01:20:07;101046.53;;;11.39;100.00
28167;BME280;15455;53.376;-6.262;2022-08-21T01:22:53;101055.25;;;11.29;100.00
28167;BME280;15455;53.376;-6.262;2022-08-21T01:25:39;101051.78;;;11.28;100.00
28167;BME280;15455;53.376;-6.262;2022-08-21T01:28:24;101056.13;;;11.22;100.00
28167;BME280;15455;53.376;-6.262;2022-08-21T01:31:13;101062.22;;;11.13;100.00
28167;BME280;15455;53.376;-6.262;2022-08-21T01:34:01;101062.22;;;11.07;100.00
28167;BME280;15455;53.376;-6.262;2022-08-21T01:36:47;101063.97;;;10.94;100.00
28167;BME280;15455;53.376;-6.262;2022-08-21T01:39:33;101066.56;;;10.86;100.00
28167;BME280;15455;53.376;-6.262;2022-08-21T01:42:20;101060.44;;;10.73;100.00
28167;BME280;15455;53.376;-6.262;2022-08-21T01:45:07;101069.13;;;10.65;100.00
28167;BME280;15455;53.376;-6.262;2022-08-21T01:47:53;101058.66;;;10.60;100.00
28167;BME280;15455;53.376;-6.262;2022-08-21T01:50:39;101070.84;;;10.55;100.00
28167;BME280;15455;53.376;-6.262;2022-08-21T01:53:24;101075.16;;;10.40;100.00
28167;BME280;15455;53.376;-6.262;2022-08-21T01:56:17;101067.31;;;10.34;100.00
28167;BME280;15455;53.376;-6.262;2022-08-21T01:59:03;101074.19;;;10.26;100.00
28167;BME280;15455;53.376;-6.262;2022-08-21T02:01:49;101068.97;;;10.29;100.00
28167;BME280;15455;53.376;-6.262;2022-08-21T02:04:34;101066.34;;;10.23;100.00
28167;BME280;15455;53.376;-6.262;2022-08-21T02:07:20;101062.00;;;10.17;100.00
28167;BME280;15455;53.376;-6.262;2022-08-21T02:10:08;101064.59;;;10.16;100.00
28167;BME280;15455;53.376;-6.262;2022-08-21T02:12:55;101063.69;;;10.14;100.00
28167;BME280;15455;53.376;-6.262;2022-08-21T02:15:42;101064.53;;;10.06;100.00
28167;BME280;15455;53.376;-6.262;2022-08-21T02:18:27;101064.53;;;10.05;100.00
28167;BME280;15455;53.376;-6.262;2022-08-21T02:21:12;101074.94;;;10.00;100.00
28167;BME280;15455;53.376;-6.262;2022-08-21T02:23:58;101076.69;;;10.01;100.00
28167;BME280;15455;53.376;-6.262;2022-08-21T02:26:43;101071.47;;;9.97;100.00
28167;BME280;15455;53.376;-6.262;2022-08-21T02:29:29;101067.97;;;9.96;100.00
28167;BME280;15455;53.376;-6.262;2022-08-21T02:32:14;101071.47;;;9.97;100.00
28167;BME280;15455;53.376;-6.262;2022-08-21T02:35:00;101069.69;;;9.88;100.00
28167;BME280;15455;53.376;-6.262;2022-08-21T02:37:51;101066.19;;;9.87;100.00
28167;BME280;15455;53.376;-6.262;2022-08-21T02:40:39;101072.28;;;9.89;100.00
28167;BME280;15455;53.376;-6.262;2022-08-21T02:43:32;101070.53;;;9.88;100.00
28167;BME280;15455;53.376;-6.262;2022-08-21T02:46:19;101067.84;;;9.79;100.00
28167;BME280;15455;53.376;-6.262;2022-08-21T02:49:06;101066.13;;;9.77;100.00
28167;BME280;15455;53.376;-6.262;2022-08-21T02:51:51;101066.97;;;9.74;100.00
28167;BME280;15455;53.376;-6.262;2022-08-21T02:54:36;101064.34;;;9.69;100.00
28167;BME280;15455;53.376;-6.262;2022-08-21T02:57:22;101064.28;;;9.60;100.00
28167;BME280;15455;53.376;-6.262;2022-08-21T03:00:08;101057.25;;;9.50;100.00
28167;BME280;15455;53.376;-6.262;2022-08-21T03:02:58;101045.00;;;9.35;100.00
28167;BME280;15455;53.376;-6.262;2022-08-21T03:05:44;101051.91;;;9.31;100.00
28167;BME280;15455;53.376;-6.262;2022-08-21T03:08:30;101057.94;;;9.27;100.00
28167;BME280;15455;53.376;-6.262;2022-08-21T03:11:15;101049.25;;;9.24;100.00
28167;BME280;15455;53.376;-6.262;2022-08-21T03:14:00;101050.06;;;9.18;100.00
28167;BME280;15455;53.376;-6.262;2022-08-21T03:16:45;101064.72;;;9.07;100.00
28167;BME280;15455;53.376;-6.262;2022-08-21T03:19:31;101049.09;;;9.03;100.00
28167;BME280;15455;53.376;-6.262;2022-08-21T03:22:16;101058.63;;;9.01;100.00
28167;BME280;15455;53.376;-6.262;2022-08-21T03:25:03;101049.06;;;8.99;100.00
28167;BME280;15455;53.376;-6.262;2022-08-21T03:27:51;101058.63;;;9.00;100.00
28167;BME280;15455;53.376;-6.262;2022-08-21T03:30:44;101068.97;;;8.98;100.00
28167;BME280;15455;53.376;-6.262;2022-08-21T03:33:31;101062.94;;;9.02;100.00
28167;BME280;15455;53.376;-6.262;2022-08-21T03:36:18;101065.63;;;9.09;100.00
28167;BME280;15455;53.376;-6.262;2022-08-21T03:39:03;101058.66;;;9.04;100.00
28167;BME280;15455;53.376;-6.262;2022-08-21T03:41:49;101058.81;;;9.21;100.00
28167;BME280;15455;53.376;-6.262;2022-08-21T03:44:35;101058.75;;;9.20;100.00
28167;BME280;15455;53.376;-6.262;2022-08-21T03:47:20;101053.59;;;9.21;100.00
28167;BME280;15455;53.376;-6.262;2022-08-21T03:50:07;101061.41;;;9.23;100.00
28167;BME280;15455;53.376;-6.262;2022-08-21T03:52:53;101064.03;;;9.23;100.00
28167;BME280;15455;53.376;-6.262;2022-08-21T03:55:38;101063.13;;;9.21;100.00
28167;BME280;15455;53.376;-6.262;2022-08-21T03:58:26;101068.34;;;9.24;100.00
28167;BME280;15455;53.376;-6.262;2022-08-21T04:01:12;101067.50;;;9.25;100.00
28167;BME280;15455;53.376;-6.262;2022-08-21T04:03:57;101070.94;;;9.21;100.00
28167;BME280;15455;53.376;-6.262;2022-08-21T04:06:42;101068.28;;;9.13;100.00
28167;BME280;15455;53.376;-6.262;2022-08-21T04:09:29;101064.78;;;9.13;100.00
28167;BME280;15455;53.376;-6.262;2022-08-21T04:12:15;101076.09;;;9.13;100.00
28167;BME280;15455;53.376;-6.262;2022-08-21T04:15:00;101073.47;;;9.12;100.00
28167;BME280;15455;53.376;-6.262;2022-08-21T04:17:47;101075.22;;;9.14;100.00
28167;BME280;15455;53.376;-6.262;2022-08-21T04:20:33;101071.66;;;9.04;100.00
28167;BME280;15455;53.376;-6.262;2022-08-21T04:23:20;101080.34;;;9.03;100.00
28167;BME280;15455;53.376;-6.262;2022-08-21T04:26:09;101082.91;;;8.99;100.00
28167;BME280;15455;53.376;-6.262;2022-08-21T04:28:55;101083.69;;;8.92;100.00
28167;BME280;15455;53.376;-6.262;2022-08-21T04:31:42;101078.41;;;8.84;100.00
28167;BME280;15455;53.376;-6.262;2022-08-21T04:34:29;101082.72;;;8.82;100.00
28167;BME280;15455;53.376;-6.262;2022-08-21T04:37:14;101093.06;;;8.74;100.00
28167;BME280;15455;53.376;-6.262;2022-08-21T04:40:04;101102.56;;;8.72;100.00
28167;BME280;15455;53.376;-6.262;2022-08-21T04:42:57;101112.13;;;8.72;100.00
28167;BME280;15455;53.376;-6.262;2022-08-21T04:45:46;101105.97;;;8.66;100.00
28167;BME280;15455;53.376;-6.262;2022-08-21T04:48:33;101120.69;;;8.63;100.00
28167;BME280;15455;53.376;-6.262;2022-08-21T04:51:45;101123.25;;;8.60;100.00
28167;BME280;15455;53.376;-6.262;2022-08-21T04:54:30;101119.69;;;8.53;100.00
28167;BME280;15455;53.376;-6.262;2022-08-21T04:57:16;101124.84;;;8.47;100.00
28167;BME280;15455;53.376;-6.262;2022-08-21T05:00:03;101116.03;;;8.40;100.00
28167;BME280;15455;53.376;-6.262;2022-08-21T05:02:59;101124.72;;;8.39;100.00
28167;BME280;15455;53.376;-6.262;2022-08-21T05:05:45;101123.88;;;8.43;100.00
28167;BME280;15455;53.376;-6.262;2022-08-21T05:08:31;101133.41;;;8.43;100.00
28167;BME280;15455;53.376;-6.262;2022-08-21T05:11:17;101140.22;;;8.31;100.00
28167;BME280;15455;53.376;-6.262;2022-08-21T05:14:03;101130.44;;;8.12;100.00
28167;BME280;15455;53.376;-6.262;2022-08-21T05:16:49;101131.97;;;7.99;100.00
28167;BME280;15455;53.376;-6.262;2022-08-21T05:19:35;101137.09;;;7.94;100.00
28167;BME280;15455;53.376;-6.262;2022-08-21T05:22:22;101135.31;;;7.89;100.00
28167;BME280;15455;53.376;-6.262;2022-08-21T05:25:09;101129.09;;;7.80;100.00
28167;BME280;15455;53.376;-6.262;2022-08-21T05:27:57;101129.81;;;7.70;100.00
28167;BME280;15455;53.376;-6.262;2022-08-21T05:30:45;101135.84;;;7.68;100.00
28167;BME280;15455;53.376;-6.262;2022-08-21T05:33:30;101138.38;;;7.63;100.00
28167;BME280;15455;53.376;-6.262;2022-08-21T05:36:19;101137.38;;;7.56;100.00
28167;BME280;15455;53.376;-6.262;2022-08-21T05:39:05;101131.19;;;7.50;100.00
28167;BME280;15455;53.376;-6.262;2022-08-21T05:41:50;101139.06;;;7.51;100.00
28167;BME280;15455;53.376;-6.262;2022-08-21T05:44:36;101135.78;;;7.64;100.00
28167;BME280;15455;53.376;-6.262;2022-08-21T05:47:22;101139.47;;;7.79;100.00
28167;BME280;15455;53.376;-6.262;2022-08-21T05:50:08;101137.97;;;7.93;100.00
28167;BME280;15455;53.376;-6.262;2022-08-21T05:52:53;101135.59;;;8.10;100.00
28167;BME280;15455;53.376;-6.262;2022-08-21T05:55:51;101136.72;;;8.28;100.00
28167;BME280;15455;53.376;-6.262;2022-08-21T05:58:37;101143.78;;;8.38;100.00
28167;BME280;15455;53.376;-6.262;2022-08-21T06:01:22;101133.56;;;8.54;100.00
28167;BME280;15455;53.376;-6.262;2022-08-21T06:04:08;101141.50;;;8.63;100.00
28167;BME280;15455;53.376;-6.262;2022-08-21T06:06:54;101150.31;;;8.76;100.00
28167;BME280;15455;53.376;-6.262;2022-08-21T06:09:40;101155.72;;;8.91;100.00
28167;BME280;15455;53.376;-6.262;2022-08-21T06:12:26;101161.03;;;9.03;100.00
28167;BME280;15455;53.376;-6.262;2022-08-21T06:15:12;101153.28;;;9.11;100.00
28167;BME280;15455;53.376;-6.262;2022-08-21T06:17:57;101149.91;;;9.20;100.00
28167;BME280;15455;53.376;-6.262;2022-08-21T06:20:44;101147.41;;;9.29;100.00
28167;BME280;15455;53.376;-6.262;2022-08-21T06:23:29;101143.16;;;9.37;100.00
28167;BME280;15455;53.376;-6.262;2022-08-21T06:26:17;101155.41;;;9.48;100.00
28167;BME280;15455;53.376;-6.262;2022-08-21T06:29:03;101160.66;;;9.54;100.00
28167;BME280;15455;53.376;-6.262;2022-08-21T06:31:49;101163.31;;;9.63;100.00
28167;BME280;15455;53.376;-6.262;2022-08-21T06:34:37;101164.28;;;9.74;100.00
28167;BME280;15455;53.376;-6.262;2022-08-21T06:37:23;101171.28;;;9.83;100.00
28167;BME280;15455;53.376;-6.262;2022-08-21T06:40:09;101174.84;;;9.93;100.00
28167;BME280;15455;53.376;-6.262;2022-08-21T06:42:57;101178.38;;;9.98;100.00
28167;BME280;15455;53.376;-6.262;2022-08-21T06:45:45;101179.25;;;10.00;100.00
28167;BME280;15455;53.376;-6.262;2022-08-21T06:48:30;101184.50;;;10.09;100.00
28167;BME280;15455;53.376;-6.262;2022-08-21T06:51:18;101195.00;;;10.16;100.00
28167;BME280;15455;53.376;-6.262;2022-08-21T06:54:04;101188.06;;;10.19;100.00
28167;BME280;15455;53.376;-6.262;2022-08-21T06:56:49;101201.13;;;10.24;100.00
28167;BME280;15455;53.376;-6.262;2022-08-21T06:59:35;101197.66;;;10.30;100.00
28167;BME280;15455;53.376;-6.262;2022-08-21T07:02:20;101194.25;;;10.35;100.00
28167;BME280;15455;53.376;-6.262;2022-08-21T07:05:06;101187.34;;;10.42;100.00
28167;BME280;15455;53.376;-6.262;2022-08-21T07:08:02;101183.91;;;10.48;100.00
28167;BME280;15455;53.376;-6.262;2022-08-21T07:10:48;101191.75;;;10.55;100.00
28167;BME280;15455;53.376;-6.262;2022-08-21T07:13:34;101177.88;;;10.61;100.00
28167;BME280;15455;53.376;-6.262;2022-08-21T07:16:21;101185.72;;;10.67;100.00
28167;BME280;15455;53.376;-6.262;2022-08-21T07:19:06;101181.41;;;10.77;100.00
28167;BME280;15455;53.376;-6.262;2022-08-21T07:21:56;101191.91;;;10.85;100.00
28167;BME280;15455;53.376;-6.262;2022-08-21T07:24:43;101193.63;;;10.89;100.00
28167;BME280;15455;53.376;-6.262;2022-08-21T07:27:28;101197.16;;;10.94;100.00
28167;BME280;15455;53.376;-6.262;2022-08-21T07:30:14;101185.84;;;10.97;100.00
28167;BME280;15455;53.376;-6.262;2022-08-21T07:33:00;101189.31;;;11.00;100.00
28167;BME280;15455;53.376;-6.262;2022-08-21T07:35:45;101199.81;;;11.08;100.00
28167;BME280;15455;53.376;-6.262;2022-08-21T07:38:31;101198.91;;;11.12;100.00
28167;BME280;15455;53.376;-6.262;2022-08-21T07:41:23;101207.66;;;11.17;100.00
28167;BME280;15455;53.376;-6.262;2022-08-21T07:44:09;101210.28;;;11.25;100.00
28167;BME280;15455;53.376;-6.262;2022-08-21T07:46:57;101219.00;;;11.33;100.00
28167;BME280;15455;53.376;-6.262;2022-08-21T07:49:42;101224.28;;;11.47;100.00
28167;BME280;15455;53.376;-6.262;2022-08-21T07:52:28;101221.66;;;11.53;100.00
28167;BME280;15455;53.376;-6.262;2022-08-21T07:55:18;101235.63;;;11.58;100.00
28167;BME280;15455;53.376;-6.262;2022-08-21T07:58:04;101219.03;;;11.64;100.00
28167;BME280;15455;53.376;-6.262;2022-08-21T08:00:50;101216.44;;;11.70;100.00
28167;BME280;15455;53.376;-6.262;2022-08-21T08:03:35;101219.06;;;11.76;100.00
28167;BME280;15455;53.376;-6.262;2022-08-21T08:06:21;101215.56;;;11.88;100.00
28167;BME280;15455;53.376;-6.262;2022-08-21T08:09:07;101207.75;;;11.97;100.00
28167;BME280;15455;53.376;-6.262;2022-08-21T08:11:53;101211.22;;;12.03;100.00
28167;BME280;15455;53.376;-6.262;2022-08-21T08:14:39;101207.75;;;12.08;100.00
28167;BME280;15455;53.376;-6.262;2022-08-21T08:17:24;101212.94;;;12.16;100.00
28167;BME280;15455;53.376;-6.262;2022-08-21T08:20:12;101205.09;;;12.30;100.00
28167;BME280;15455;53.376;-6.262;2022-08-21T08:22:58;101212.94;;;12.41;100.00
28167;BME280;15455;53.376;-6.262;2022-08-21T08:25:44;101207.66;;;12.50;100.00
28167;BME280;15455;53.376;-6.262;2022-08-21T08:28:30;101210.25;;;12.58;100.00
28167;BME280;15455;53.376;-6.262;2022-08-21T08:31:16;101213.69;;;12.71;100.00
28167;BME280;15455;53.376;-6.262;2022-08-21T08:34:02;101212.75;;;12.84;100.00
28167;BME280;15455;53.376;-6.262;2022-08-21T08:36:48;101203.06;;;12.98;100.00
28167;BME280;15455;53.376;-6.262;2022-08-21T08:39:36;101206.47;;;13.19;100.00
28167;BME280;15455;53.376;-6.262;2022-08-21T08:42:27;101200.31;;;13.29;100.00
28167;BME280;15455;53.376;-6.262;2022-08-21T08:45:21;101195.91;;;13.36;100.00
28167;BME280;15455;53.376;-6.262;2022-08-21T08:48:11;101198.47;;;13.45;100.00
28167;BME280;15455;53.376;-6.262;2022-08-21T08:51:00;101194.97;;;13.48;99.97
28167;BME280;15455;53.376;-6.262;2022-08-21T08:54:00;101205.44;;;13.49;98.13
28167;BME280;15455;53.376;-6.262;2022-08-21T08:56:48;101199.31;;;13.49;96.13
28167;BME280;15455;53.376;-6.262;2022-08-21T08:59:51;101200.16;;;13.52;98.57
28167;BME280;15455;53.376;-6.262;2022-08-21T09:02:39;101208.88;;;13.54;98.29
28167;BME280;15455;53.376;-6.262;2022-08-21T09:05:28;101206.22;;;13.58;97.59
28167;BME280;15455;53.376;-6.262;2022-08-21T09:14:54;101205.19;;;13.82;94.20
28167;BME280;15455;53.376;-6.262;2022-08-21T09:24:09;101207.41;;;14.25;88.54
28167;BME280;15455;53.376;-6.262;2022-08-21T09:27:10;101195.84;;;14.41;83.87
28167;BME280;15455;53.376;-6.262;2022-08-21T09:29:55;101203.50;;;14.62;80.43
28167;BME280;15455;53.376;-6.262;2022-08-21T09:32:43;101204.31;;;14.68;80.96
28167;BME280;15455;53.376;-6.262;2022-08-21T09:35:29;101195.38;;;14.82;82.65
28167;BME280;15455;53.376;-6.262;2022-08-21T09:38:26;101191.72;;;14.95;80.93
28167;BME280;15455;53.376;-6.262;2022-08-21T09:41:12;101195.03;;;15.09;79.11
28167;BME280;15455;53.376;-6.262;2022-08-21T09:43:57;101200.22;;;15.14;73.97
28167;BME280;15455;53.376;-6.262;2022-08-21T09:46:50;101193.34;;;15.05;71.35
28167;BME280;15455;53.376;-6.262;2022-08-21T09:49:39;101196.03;;;14.99;72.50
28167;BME280;15455;53.376;-6.262;2022-08-21T09:52:25;101192.53;;;15.00;73.07
28167;BME280;15455;53.376;-6.262;2022-08-21T09:55:16;101196.91;;;15.00;73.91
28167;BME280;15455;53.376;-6.262;2022-08-21T09:58:35;101183.75;;;15.01;72.72
28167;BME280;15455;53.376;-6.262;2022-08-21T10:01:24;101190.72;;;15.05;74.80
28167;BME280;15455;53.376;-6.262;2022-08-21T10:04:11;101186.22;;;15.12;73.72
28167;BME280;15455;53.376;-6.262;2022-08-21T10:07:11;101195.75;;;15.19;72.32
28167;BME280;15455;53.376;-6.262;2022-08-21T10:10:06;101201.69;;;15.32;72.76
28167;BME280;15455;53.376;-6.262;2022-08-21T10:13:16;101198.03;;;15.45;67.50
28167;BME280;15455;53.376;-6.262;2022-08-21T10:19:38;101190.63;;;15.69;70.51
28167;BME280;15455;53.376;-6.262;2022-08-21T10:25:25;101188.03;;;16.19;69.02
28167;BME280;15455;53.376;-6.262;2022-08-21T10:34:36;101185.72;;;16.47;61.80
28167;BME280;15455;53.376;-6.262;2022-08-21T10:55:55;101185.19;;;15.82;65.53
28167;BME280;15455;53.376;-6.262;2022-08-21T10:58:57;101187.78;;;15.83;65.08
28167;BME280;15455;53.376;-6.262;2022-08-21T11:04:50;101186.78;;;15.90;65.46
28167;BME280;15455;53.376;-6.262;2022-08-21T11:07:54;101187.44;;;16.02;65.24
28167;BME280;15455;53.376;-6.262;2022-08-21T11:10:51;101183.09;;;16.01;65.27
28167;BME280;15455;53.376;-6.262;2022-08-21T11:16:40;101175.53;;;15.82;64.45
28167;BME280;15455;53.376;-6.262;2022-08-21T11:19:47;101176.28;;;15.87;66.61
28167;BME280;15455;53.376;-6.262;2022-08-21T11:22:46;101177.00;;;15.97;65.16
28167;BME280;15455;53.376;-6.262;2022-08-21T11:26:05;101170.53;;;16.15;66.20
28167;BME280;15455;53.376;-6.262;2022-08-21T11:29:02;101171.25;;;16.23;63.47
28167;BME280;15455;53.376;-6.262;2022-08-21T11:44:18;101189.53;;;16.75;63.28
28167;BME280;15455;53.376;-6.262;2022-08-21T11:47:16;101179.81;;;16.78;63.46
28167;BME280;15455;53.376;-6.262;2022-08-21T11:50:14;101167.22;;;16.94;60.52
28167;BME280;15455;53.376;-6.262;2022-08-21T11:53:35;101171.91;;;17.19;60.22
28167;BME280;15455;53.376;-6.262;2022-08-21T11:56:28;101177.84;;;17.27;59.36
28167;BME280;15455;53.376;-6.262;2022-08-21T11:59:34;101178.41;;;17.42;57.05
28167;BME280;15455;53.376;-6.262;2022-08-21T12:02:30;101174.91;;;17.77;58.27
28167;BME280;15455;53.376;-6.262;2022-08-21T12:05:32;101169.50;;;18.16;52.10
28167;BME280;15455;53.376;-6.262;2022-08-21T12:08:37;101165.41;;;18.37;52.06
28167;BME280;15455;53.376;-6.262;2022-08-21T12:11:25;101161.56;;;18.78;52.47
28167;BME280;15455;53.376;-6.262;2022-08-21T12:14:17;101164.28;;;19.06;49.00
28167;BME280;15455;53.376;-6.262;2022-08-21T12:17:07;101155.06;;;19.46;48.91
28167;BME280;15455;53.376;-6.262;2022-08-21T12:20:23;101155.63;;;19.56;47.46
28167;BME280;15455;53.376;-6.262;2022-08-21T12:26:02;101162.84;;;19.51;47.39
28167;BME280;15455;53.376;-6.262;2022-08-21T12:28:48;101161.81;;;19.83;46.88
28167;BME280;15455;53.376;-6.262;2022-08-21T12:31:34;101162.50;;;20.13;47.67
28167;BME280;15455;53.376;-6.262;2022-08-21T12:34:24;101167.66;;;20.42;47.02
28167;BME280;15455;53.376;-6.262;2022-08-21T12:37:19;101163.03;;;20.23;41.82
28167;BME280;15455;53.376;-6.262;2022-08-21T12:40:26;101171.88;;;20.47;43.42
28167;BME280;15455;53.376;-6.262;2022-08-21T12:43:16;101174.16;;;20.57;43.92
28167;BME280;15455;53.376;-6.262;2022-08-21T12:46:03;101177.41;;;20.65;42.19
28167;BME280;15455;53.376;-6.262;2022-08-21T12:48:52;101181.47;;;20.99;43.69
28167;BME280;15455;53.376;-6.262;2022-08-21T12:54:44;101172.88;;;21.59;54.69
28167;BME280;15455;53.376;-6.262;2022-08-21T12:57:30;101181.22;;;21.72;50.13
28167;BME280;15455;53.376;-6.262;2022-08-21T13:00:21;101183.94;;;21.70;49.11
28167;BME280;15455;53.376;-6.262;2022-08-21T13:03:08;101181.88;;;21.77;51.05
28167;BME280;15455;53.376;-6.262;2022-08-21T13:05:53;101174.28;;;21.88;47.77
28167;BME280;15455;53.376;-6.262;2022-08-21T13:08:39;101183.75;;;22.16;52.62
28167;BME280;15455;53.376;-6.262;2022-08-21T13:11:31;101180.00;;;22.20;49.04
28167;BME280;15455;53.376;-6.262;2022-08-21T13:14:50;101167.84;;;21.94;48.36
28167;BME280;15455;53.376;-6.262;2022-08-21T13:17:36;101164.34;;;21.93;48.58
28167;BME280;15455;53.376;-6.262;2022-08-21T13:20:32;101163.47;;;22.13;49.39
28167;BME280;15455;53.376;-6.262;2022-08-21T13:23:26;101172.94;;;22.00;47.34
28167;BME280;15455;53.376;-6.262;2022-08-21T13:26:21;101171.84;;;22.04;48.02
28167;BME280;15455;53.376;-6.262;2022-08-21T13:29:10;101171.91;;;22.23;48.71
28167;BME280;15455;53.376;-6.262;2022-08-21T13:32:00;101170.16;;;22.43;47.66
28167;BME280;15455;53.376;-6.262;2022-08-21T13:34:47;101173.66;;;22.64;46.42
28167;BME280;15455;53.376;-6.262;2022-08-21T13:37:40;101162.09;;;22.65;44.76
28167;BME280;15455;53.376;-6.262;2022-08-21T13:40:31;101162.22;;;22.81;45.60
28167;BME280;15455;53.376;-6.262;2022-08-21T13:43:20;101157.59;;;22.84;46.90
28167;BME280;15455;53.376;-6.262;2022-08-21T13:46:09;101154.16;;;22.82;48.22
28167;BME280;15455;53.376;-6.262;2022-08-21T13:48:56;101153.16;;;22.66;45.52
28167;BME280;15455;53.376;-6.262;2022-08-21T13:51:45;101144.72;;;22.56;45.96
28167;BME280;15455;53.376;-6.262;2022-08-21T13:54:37;101159.66;;;22.40;44.39
28167;BME280;15455;53.376;-6.262;2022-08-21T13:57:34;101156.94;;;22.20;47.30
28167;BME280;15455;53.376;-6.262;2022-08-21T14:00:29;101158.41;;;21.86;46.42
28167;BME280;15455;53.376;-6.262;2022-08-21T14:03:27;101165.44;;;21.45;45.58
28167;BME280;15455;53.376;-6.262;2022-08-21T14:06:22;101157.44;;;21.02;48.23
28167;BME280;15455;53.376;-6.262;2022-08-21T14:09:39;101151.38;;;20.98;51.22
28167;BME280;15455;53.376;-6.262;2022-08-21T14:12:47;101156.41;;;21.06;53.74
28167;BME280;15455;53.376;-6.262;2022-08-21T14:15:34;101149.41;;;21.26;50.13
28167;BME280;15455;53.376;-6.262;2022-08-21T14:18:20;101140.34;;;21.31;49.77
28167;BME280;15455;53.376;-6.262;2022-08-21T14:21:08;101138.03;;;21.44;49.76
28167;BME280;15455;53.376;-6.262;2022-08-21T14:24:29;101129.66;;;21.33;47.78
28167;BME280;15455;53.376;-6.262;2022-08-21T14:27:20;101138.94;;;21.01;46.90
28167;BME280;15455;53.376;-6.262;2022-08-21T14:30:16;101141.03;;;20.92;50.57
28167;BME280;15455;53.376;-6.262;2022-08-21T14:33:04;101138.69;;;20.85;50.48
28167;BME280;15455;53.376;-6.262;2022-08-21T14:35:53;101135.91;;;20.88;50.47
28167;BME280;15455;53.376;-6.262;2022-08-21T14:38:40;101134.34;;;20.82;47.71
28167;BME280;15455;53.376;-6.262;2022-08-21T14:41:27;101140.69;;;20.78;52.23
28167;BME280;15455;53.376;-6.262;2022-08-21T14:44:18;101130.56;;;20.65;51.78
28167;BME280;15455;53.376;-6.262;2022-08-21T14:47:04;101131.47;;;20.64;53.05
28167;BME280;15455;53.376;-6.262;2022-08-21T14:49:50;101131.84;;;20.54;54.06
28167;BME280;15455;53.376;-6.262;2022-08-21T14:52:40;101129.41;;;20.25;52.48
28167;BME280;15455;53.376;-6.262;2022-08-21T14:55:26;101132.22;;;20.21;56.47
28167;BME280;15455;53.376;-6.262;2022-08-21T14:58:11;101130.72;;;19.88;55.48
28167;BME280;15455;53.376;-6.262;2022-08-21T15:00:58;101117.81;;;19.77;56.77
28167;BME280;15455;53.376;-6.262;2022-08-21T15:03:44;101125.22;;;19.68;57.07
28167;BME280;15455;53.376;-6.262;2022-08-21T15:06:31;101121.22;;;19.56;55.31
28167;BME280;15455;53.376;-6.262;2022-08-21T15:09:16;101132.44;;;19.63;55.21
28167;BME280;15455;53.376;-6.262;2022-08-21T15:12:03;101129.69;;;19.66;56.36
28167;BME280;15455;53.376;-6.262;2022-08-21T15:14:49;101134.56;;;19.80;58.72
28167;BME280;15455;53.376;-6.262;2022-08-21T15:17:35;101129.31;;;19.76;54.82
28167;BME280;15455;53.376;-6.262;2022-08-21T15:20:21;101129.59;;;20.19;56.35
28167;BME280;15455;53.376;-6.262;2022-08-21T15:23:08;101134.22;;;20.85;54.42
28167;BME280;15455;53.376;-6.262;2022-08-21T15:25:59;101129.16;;;21.45;51.19
28167;BME280;15455;53.376;-6.262;2022-08-21T15:28:46;101135.81;;;21.97;50.57
28167;BME280;15455;53.376;-6.262;2022-08-21T15:31:31;101138.72;;;22.32;46.50
28167;BME280;15455;53.376;-6.262;2022-08-21T15:34:17;101131.94;;;22.64;47.32
28167;BME280;15455;53.376;-6.262;2022-08-21T15:37:02;101132.16;;;22.79;45.07
28167;BME280;15455;53.376;-6.262;2022-08-21T15:39:51;101129.19;;;22.85;45.54